createdAt,value
2023-03-21T00:01:05.268Z,7.72
2023-03-21T00:03:34.177Z,7.77
2023-03-21T00:06:09.443Z,7.74
2023-03-21T00:08:36.470Z,7.75
2023-03-21T00:11:06.340Z,7.79
2023-03-21T00:13:38.551Z,7.78
2023-03-21T00:16:16.123Z,7.80
2023-03-21T00:18:52.775Z,7.75
2023-03-21T00:24:09.453Z,7.76
2023-03-21T00:26:38.390Z,7.75
2023-03-21T00:29:05.520Z,7.77
2023-03-21T00:31:32.591Z,7.73
2023-03-21T00:34:00.116Z,7.74
2023-03-21T00:36:27.192Z,7.78
2023-03-21T00:38:54.563Z,7.78
2023-03-21T00:41:39.137Z,7.75
2023-03-21T00:44:09.626Z,7.75
2023-03-21T00:46:45.561Z,7.74
2023-03-21T00:49:16.262Z,7.70
2023-03-21T00:51:43.938Z,7.70
2023-03-21T00:54:12.850Z,7.71
2023-03-21T00:56:41.241Z,7.72
2023-03-21T00:59:08.255Z,7.69
2023-03-21T01:01:36.637Z,7.69
2023-03-21T01:04:10.961Z,7.68
2023-03-21T01:06:39.725Z,7.68
2023-03-21T01:09:08.181Z,7.65
2023-03-21T01:11:36.559Z,7.68
2023-03-21T01:14:20.846Z,7.67
2023-03-21T01:16:50.408Z,7.61
2023-03-21T01:19:27.444Z,7.63
2023-03-21T01:21:56.051Z,7.62
2023-03-21T01:24:24.242Z,7.60
2023-03-21T01:26:51.276Z,7.58
2023-03-21T01:29:18.509Z,7.57
2023-03-21T01:31:45.710Z,7.51
2023-03-21T01:34:12.884Z,7.51
2023-03-21T01:36:40.119Z,7.57
2023-03-21T01:39:11.615Z,7.57
2023-03-21T01:41:44.670Z,7.54
2023-03-21T01:44:54.585Z,7.54
2023-03-21T01:47:22.088Z,7.57
2023-03-21T01:50:03.603Z,7.53
2023-03-21T01:52:42.040Z,7.53
2023-03-21T01:55:17.272Z,7.53
2023-03-21T01:58:05.826Z,7.54
2023-03-21T02:00:57.041Z,7.53
2023-03-21T02:03:38.737Z,7.53
2023-03-21T02:06:38.544Z,7.52
2023-03-21T02:09:28.246Z,7.50
2023-03-21T02:11:55.933Z,7.49
2023-03-21T02:14:29.653Z,7.46
2023-03-21T02:17:40.148Z,7.43
2023-03-21T02:20:35.377Z,7.48
2023-03-21T02:23:32.598Z,7.48
2023-03-21T02:26:41.256Z,7.46
2023-03-21T02:29:18.038Z,7.46
2023-03-21T02:32:22.678Z,7.49
2023-03-21T02:35:26.615Z,7.45
2023-03-21T02:38:00.777Z,7.46
2023-03-21T02:40:38.025Z,7.47
2023-03-21T02:43:22.487Z,7.49
2023-03-21T02:46:07.763Z,7.48
2023-03-21T02:48:50.238Z,7.49
2023-03-21T02:51:22.725Z,7.49
2023-03-21T02:54:26.438Z,7.44
2023-03-21T02:56:53.819Z,7.45
2023-03-21T02:59:25.278Z,7.46
2023-03-21T03:01:56.435Z,7.46
2023-03-21T03:04:29.536Z,7.45
2023-03-21T03:06:58.863Z,7.46
2023-03-21T03:09:49.644Z,7.47
2023-03-21T03:12:19.310Z,7.47
2023-03-21T03:15:04.430Z,7.46
2023-03-21T03:17:51.030Z,7.26
2023-03-21T03:20:18.216Z,7.44
2023-03-21T03:22:55.037Z,7.42
2023-03-21T03:25:49.133Z,7.42
2023-03-21T03:28:23.251Z,7.42
2023-03-21T03:31:08.246Z,7.44
2023-03-21T03:33:48.433Z,7.36
2023-03-21T03:36:33.578Z,7.24
2023-03-21T03:39:09.177Z,7.43
2023-03-21T03:42:15.445Z,7.21
2023-03-21T03:44:53.534Z,7.41
2023-03-21T03:47:38.031Z,7.41
2023-03-21T03:50:41.160Z,7.41
2023-03-21T03:53:46.791Z,7.41
2023-03-21T03:56:14.595Z,7.40
2023-03-21T03:58:45.995Z,7.41
2023-03-21T04:01:17.748Z,7.42
2023-03-21T04:03:52.967Z,7.44
2023-03-21T04:06:29.058Z,7.43
2023-03-21T04:08:57.262Z,7.33
2023-03-21T04:11:24.493Z,7.38
2023-03-21T04:13:53.997Z,7.37
2023-03-21T04:16:23.594Z,7.37
2023-03-21T04:18:52.631Z,7.34
2023-03-21T04:21:20.115Z,7.33
2023-03-21T04:23:47.106Z,7.32
2023-03-21T04:26:14.173Z,7.33
2023-03-21T04:28:51.423Z,7.34
2023-03-21T04:31:26.001Z,7.28
2023-03-21T04:34:05.990Z,7.32
2023-03-21T04:36:39.431Z,7.33
2023-03-21T04:39:12.663Z,7.32
2023-03-21T04:41:42.655Z,7.30
2023-03-21T04:44:11.888Z,7.30
2023-03-21T04:46:40.253Z,7.28
2023-03-21T04:49:08.547Z,7.25
2023-03-21T04:51:36.286Z,7.27
2023-03-21T04:56:36.403Z,7.31
2023-03-21T04:59:11.678Z,7.30
2023-03-21T05:01:41.347Z,7.31
2023-03-21T05:04:10.519Z,7.29
2023-03-21T05:06:38.421Z,7.25
2023-03-21T05:09:07.205Z,7.21
2023-03-21T05:11:38.043Z,7.25
2023-03-21T05:14:06.565Z,6.94
2023-03-21T05:16:34.902Z,7.22
2023-03-21T05:19:06.247Z,7.21
2023-03-21T05:21:42.224Z,7.25
2023-03-21T05:24:20.147Z,7.24
2023-03-21T05:26:52.526Z,7.28
2023-03-21T05:29:23.088Z,7.26
2023-03-21T05:31:56.502Z,7.26
2023-03-21T05:34:24.665Z,7.26
2023-03-21T05:36:52.036Z,7.20
2023-03-21T05:39:20.057Z,7.26
2023-03-21T05:41:59.296Z,7.31
2023-03-21T05:44:27.215Z,7.29
2023-03-21T05:46:54.365Z,7.33
2023-03-21T05:49:27.310Z,7.36
2023-03-21T05:51:58.716Z,7.37
2023-03-21T05:54:25.930Z,7.38
2023-03-21T05:56:52.997Z,7.35
2023-03-21T05:59:42.801Z,7.30
2023-03-21T06:02:09.879Z,7.38
2023-03-21T06:04:37.573Z,7.35
2023-03-21T06:07:04.816Z,7.36
2023-03-21T06:09:32.288Z,7.40
2023-03-21T06:12:01.998Z,7.36
2023-03-21T06:14:39.393Z,7.38
2023-03-21T06:17:29.570Z,7.36
2023-03-21T06:20:02.238Z,7.34
2023-03-21T06:22:32.790Z,7.37
2023-03-21T06:25:00.887Z,7.38
2023-03-21T06:27:28.722Z,7.39
2023-03-21T06:29:58.165Z,7.43
2023-03-21T06:32:26.702Z,7.49
2023-03-21T06:35:02.228Z,7.54
2023-03-21T06:37:29.278Z,7.57
2023-03-21T06:39:56.895Z,7.62
2023-03-21T06:42:24.445Z,7.51
2023-03-21T06:44:53.211Z,7.66
2023-03-21T06:47:21.068Z,7.70
2023-03-21T06:49:48.098Z,7.76
2023-03-21T06:52:15.149Z,7.72
2023-03-21T06:54:43.276Z,7.81
2023-03-21T06:57:13.619Z,7.86
2023-03-21T06:59:42.147Z,7.89
2023-03-21T07:02:16.128Z,7.89
2023-03-21T07:04:54.463Z,7.91
2023-03-21T07:07:26.495Z,7.88
2023-03-21T07:09:53.561Z,7.95
2023-03-21T07:12:20.942Z,7.94
2023-03-21T07:15:09.281Z,7.91
2023-03-21T07:17:37.585Z,7.89
2023-03-21T07:20:13.316Z,7.94
2023-03-21T07:22:41.155Z,7.97
2023-03-21T07:25:09.320Z,7.96
2023-03-21T07:27:41.244Z,7.92
2023-03-21T07:30:10.540Z,8.03
2023-03-21T07:32:38.253Z,8.11
2023-03-21T07:35:12.110Z,8.17
2023-03-21T07:37:40.407Z,8.23
2023-03-21T07:40:13.373Z,8.26
2023-03-21T07:42:42.048Z,8.33
2023-03-21T07:45:16.557Z,8.33
2023-03-21T07:47:45.837Z,8.33
2023-03-21T07:50:13.607Z,8.37
2023-03-21T07:52:40.577Z,8.34
2023-03-21T07:55:08.231Z,8.31
2023-03-21T07:57:35.779Z,8.27
2023-03-21T08:00:05.563Z,8.23
2023-03-21T08:02:40.265Z,8.27
2023-03-21T08:05:08.307Z,8.26
2023-03-21T08:07:35.277Z,8.24
2023-03-21T08:10:02.338Z,8.21
2023-03-21T08:12:29.375Z,8.19
2023-03-21T08:14:57.011Z,8.13
2023-03-21T08:17:25.633Z,8.18
2023-03-21T08:19:52.651Z,8.25
2023-03-21T08:22:19.721Z,8.31
2023-03-21T08:24:46.748Z,8.39
2023-03-21T08:27:14.167Z,8.50
2023-03-21T08:29:42.530Z,8.52
2023-03-21T08:32:09.513Z,8.36
2023-03-21T08:34:36.734Z,8.48
2023-03-21T08:37:04.450Z,8.47
2023-03-21T08:39:31.468Z,8.38
2023-03-21T08:41:58.643Z,8.37
2023-03-21T08:44:26.172Z,8.32
2023-03-21T08:46:53.661Z,8.29
2023-03-21T08:49:20.885Z,8.30
2023-03-21T08:51:47.897Z,8.38
2023-03-21T08:54:22.124Z,8.40
2023-03-21T08:56:49.609Z,8.49
2023-03-21T08:59:16.684Z,8.50
2023-03-21T09:01:43.723Z,8.56
2023-03-21T09:04:11.271Z,8.55
2023-03-21T09:06:41.160Z,8.53
2023-03-21T09:09:09.487Z,8.49
2023-03-21T09:11:36.635Z,8.54
2023-03-21T09:14:03.707Z,8.54
2023-03-21T09:16:31.465Z,8.60
2023-03-21T09:18:59.378Z,8.72
2023-03-21T09:21:28.219Z,8.81
2023-03-21T09:23:58.711Z,8.92
2023-03-21T09:26:27.990Z,8.93
2023-03-21T09:28:56.511Z,9.05
2023-03-21T09:31:23.771Z,9.09
2023-03-21T09:33:52.420Z,9.16
2023-03-21T09:36:21.251Z,9.25
2023-03-21T09:38:50.196Z,9.28
2023-03-21T09:41:29.284Z,9.35
2023-03-21T09:44:04.979Z,9.42
2023-03-21T09:46:39.079Z,9.55
2023-03-21T09:49:13.114Z,9.54
2023-03-21T09:51:46.256Z,9.64
2023-03-21T09:54:34.023Z,9.73
2023-03-21T09:57:21.070Z,9.88
2023-03-21T09:59:50.713Z,9.92
2023-03-21T10:02:36.928Z,9.92
2023-03-21T10:05:13.257Z,9.81
2023-03-21T10:07:47.886Z,9.74
2023-03-21T10:10:27.791Z,9.68
2023-03-21T10:12:56.396Z,9.60
2023-03-21T10:15:26.298Z,9.55
2023-03-21T10:18:01.258Z,9.52
2023-03-21T10:20:34.325Z,9.43
2023-03-21T10:23:06.802Z,9.48
2023-03-21T10:25:41.305Z,9.47
2023-03-21T10:28:15.508Z,9.50
2023-03-21T10:30:54.027Z,9.50
2023-03-21T10:33:24.896Z,9.54
2023-03-21T10:35:55.714Z,9.56
2023-03-21T10:38:25.670Z,9.60
2023-03-21T10:40:53.226Z,9.58
2023-03-21T10:43:26.124Z,9.66
2023-03-21T10:45:55.099Z,9.72
2023-03-21T10:48:23.203Z,9.79
2023-03-21T10:50:54.544Z,9.83
2023-03-21T10:53:35.438Z,9.82
2023-03-21T10:56:06.772Z,9.76
2023-03-21T10:58:39.640Z,9.72
2023-03-21T11:01:14.912Z,9.73
2023-03-21T11:03:47.069Z,9.67
2023-03-21T11:06:26.674Z,9.75
2023-03-21T11:09:02.582Z,9.83
2023-03-21T11:11:40.676Z,9.90
2023-03-21T11:14:24.031Z,10.01
2023-03-21T11:16:51.776Z,10.12
2023-03-21T11:19:39.227Z,10.35
2023-03-21T11:22:08.382Z,10.44
2023-03-21T11:24:36.758Z,10.41
2023-03-21T11:27:08.324Z,10.41
2023-03-21T11:29:39.103Z,10.36
2023-03-21T11:32:21.802Z,10.27
2023-03-21T11:35:11.151Z,10.22
2023-03-21T11:37:47.836Z,10.20
2023-03-21T11:40:26.192Z,10.25
2023-03-21T11:42:56.084Z,10.36
2023-03-21T11:45:29.441Z,10.46
2023-03-21T11:47:58.804Z,10.70
2023-03-21T11:50:35.321Z,10.83
2023-03-21T11:53:32.193Z,10.87
2023-03-21T11:55:59.260Z,10.86
2023-03-21T11:59:01.729Z,10.84
2023-03-21T12:02:12.876Z,10.81
2023-03-21T12:04:57.485Z,10.75
2023-03-21T12:07:24.511Z,10.74
2023-03-21T12:10:11.022Z,10.64
2023-03-21T12:13:35.571Z,10.62
2023-03-21T12:16:09.443Z,10.60
2023-03-21T12:18:51.409Z,10.56
2023-03-21T12:21:40.820Z,10.49
2023-03-21T12:24:41.838Z,10.57
2023-03-21T12:27:30.471Z,10.60
2023-03-21T12:30:32.077Z,10.79
2023-03-21T12:33:25.249Z,10.95
2023-03-21T12:36:13.233Z,11.13
2023-03-21T12:38:51.606Z,11.22
2023-03-21T12:41:25.725Z,11.21
2023-03-21T12:44:03.816Z,11.33
2023-03-21T12:46:40.485Z,11.34
2023-03-21T12:49:33.897Z,11.24
2023-03-21T12:52:12.335Z,11.45
2023-03-21T12:54:49.554Z,11.58
2023-03-21T12:57:23.533Z,11.70
2023-03-21T13:00:00.086Z,11.80
2023-03-21T13:02:31.972Z,11.91
2023-03-21T13:05:07.176Z,11.97
2023-03-21T13:07:42.589Z,11.98
2023-03-21T13:10:16.580Z,11.91
2023-03-21T13:13:02.113Z,11.84
2023-03-21T13:15:48.684Z,11.80
2023-03-21T13:18:34.129Z,11.88
2023-03-21T13:21:21.410Z,11.97
2023-03-21T13:24:16.504Z,12.08
2023-03-21T13:26:51.435Z,12.04
2023-03-21T13:29:28.733Z,12.00
2023-03-21T13:32:08.262Z,11.98
2023-03-21T13:34:38.316Z,11.97
2023-03-21T13:37:05.696Z,11.98
2023-03-21T13:39:32.920Z,12.07
2023-03-21T13:42:05.959Z,12.05
2023-03-21T13:44:42.191Z,12.01
2023-03-21T13:48:06.600Z,11.87
2023-03-21T13:51:00.730Z,11.61
2023-03-21T13:53:40.602Z,11.47
2023-03-21T13:56:12.223Z,11.43
2023-03-21T13:58:45.082Z,11.45
2023-03-21T14:01:27.357Z,11.45
2023-03-21T14:04:01.430Z,11.44
2023-03-21T14:06:54.340Z,11.37
2023-03-21T14:09:24.936Z,11.37
2023-03-21T14:11:56.602Z,11.37
2023-03-21T14:14:30.107Z,11.43
2023-03-21T14:16:57.249Z,11.49
2023-03-21T14:19:33.029Z,11.46
2023-03-21T14:22:00.106Z,11.53
2023-03-21T14:24:27.171Z,11.53
2023-03-21T14:26:56.122Z,11.59
2023-03-21T14:29:31.884Z,11.55
2023-03-21T14:32:00.485Z,11.46
2023-03-21T14:34:30.849Z,11.41
2023-03-21T14:36:58.924Z,11.30
2023-03-21T14:39:33.673Z,11.22
2023-03-21T14:42:09.663Z,11.22
2023-03-21T14:44:57.040Z,11.19
2023-03-21T14:47:27.941Z,11.14
2023-03-21T14:49:56.566Z,11.08
2023-03-21T14:52:31.856Z,11.02
2023-03-21T14:55:01.042Z,11.07
2023-03-21T14:57:31.461Z,11.07
2023-03-21T15:00:01.983Z,11.11
2023-03-21T15:02:39.011Z,11.09
2023-03-21T15:05:29.269Z,11.11
2023-03-21T15:07:59.905Z,11.07
2023-03-21T15:10:30.983Z,11.06
2023-03-21T15:13:01.479Z,11.07
2023-03-21T15:15:30.156Z,11.01
2023-03-21T15:18:03.676Z,10.95
2023-03-21T15:20:34.373Z,10.96
2023-03-21T15:23:12.164Z,10.96
2023-03-21T15:25:40.330Z,10.95
2023-03-21T15:28:07.736Z,10.96
2023-03-21T15:30:35.638Z,10.83
2023-03-21T15:33:09.479Z,10.89
2023-03-21T15:35:41.196Z,10.82
2023-03-21T15:38:36.715Z,10.77
2023-03-21T15:41:22.017Z,10.75
2023-03-21T15:44:09.320Z,10.67
2023-03-21T15:46:43.767Z,10.60
2023-03-21T15:49:13.642Z,10.59
2023-03-21T15:51:46.792Z,10.54
2023-03-21T15:54:19.266Z,10.53
2023-03-21T15:56:46.467Z,10.51
2023-03-21T15:59:18.303Z,10.49
2023-03-21T16:01:49.944Z,10.48
2023-03-21T16:04:20.577Z,10.42
2023-03-21T16:07:05.411Z,10.40
2023-03-21T16:09:42.799Z,10.37
2023-03-21T16:12:12.901Z,10.39
2023-03-21T16:14:40.699Z,10.36
2023-03-21T16:17:35.748Z,10.30
2023-03-21T16:20:03.651Z,10.26
2023-03-21T16:22:35.032Z,10.25
2023-03-21T16:25:02.134Z,10.18
2023-03-21T16:27:29.204Z,10.20
2023-03-21T16:29:56.381Z,10.14
2023-03-21T16:32:24.156Z,10.15
2023-03-21T16:34:53.879Z,10.13
2023-03-21T16:37:21.703Z,10.10
2023-03-21T16:39:48.869Z,10.08
2023-03-21T16:42:16.186Z,10.05
2023-03-21T16:44:43.255Z,10.00
2023-03-21T16:47:17.050Z,9.98
2023-03-21T16:49:44.940Z,9.95
2023-03-21T16:52:13.175Z,9.92
2023-03-21T16:54:41.457Z,9.90
2023-03-21T16:57:19.752Z,9.87
2023-03-21T16:59:46.795Z,9.80
2023-03-21T17:02:17.067Z,9.79
2023-03-21T17:04:44.751Z,9.77
2023-03-21T17:07:16.723Z,9.76
2023-03-21T17:09:44.017Z,9.74
2023-03-21T17:12:13.959Z,9.70
2023-03-21T17:14:45.475Z,9.64
2023-03-21T17:17:17.167Z,9.62
2023-03-21T17:19:44.179Z,9.59
2023-03-21T17:22:13.416Z,9.58
2023-03-21T17:24:41.581Z,9.53
2023-03-21T17:27:08.874Z,9.53
2023-03-21T17:29:35.941Z,9.51
2023-03-21T17:32:03.150Z,9.50
2023-03-21T17:34:32.707Z,9.46
2023-03-21T17:36:59.753Z,9.46
2023-03-21T17:39:28.828Z,9.45
2023-03-21T17:41:57.065Z,9.44
2023-03-21T17:44:24.117Z,9.43
2023-03-21T17:46:52.234Z,9.40
2023-03-21T17:49:20.185Z,9.37
2023-03-21T17:51:47.263Z,9.36
2023-03-21T17:54:14.384Z,9.38
2023-03-21T17:56:42.270Z,9.36
2023-03-21T17:59:13.246Z,9.35
2023-03-21T18:01:40.836Z,9.31
2023-03-21T18:04:08.303Z,9.31
2023-03-21T18:06:36.262Z,9.30
2023-03-21T18:09:07.249Z,9.27
2023-03-21T18:11:34.394Z,9.22
2023-03-21T18:14:15.346Z,9.24
2023-03-21T18:16:43.120Z,9.21
2023-03-21T18:19:13.312Z,9.20
2023-03-21T18:21:45.878Z,9.19
2023-03-21T18:24:14.398Z,9.18
2023-03-21T18:26:43.018Z,9.16
2023-03-21T18:32:06.959Z,9.12
2023-03-21T18:34:37.190Z,9.15
2023-03-21T18:37:07.590Z,9.14
2023-03-21T18:39:35.129Z,9.11
2023-03-21T18:42:04.526Z,9.10
2023-03-21T18:44:37.650Z,9.10
2023-03-21T18:47:06.848Z,9.03
2023-03-21T18:52:21.488Z,9.04
2023-03-21T18:54:49.115Z,9.05
2023-03-21T18:57:35.728Z,9.01
2023-03-21T19:00:11.140Z,9.04
2023-03-21T19:02:43.180Z,9.05
2023-03-21T19:05:12.871Z,9.02
2023-03-21T19:07:39.993Z,9.03
2023-03-21T19:10:17.445Z,9.06
2023-03-21T19:12:45.466Z,9.04
2023-03-21T19:15:12.544Z,9.00
2023-03-21T19:20:27.339Z,9.03
2023-03-21T19:22:54.512Z,9.02
2023-03-21T19:25:21.943Z,9.02
2023-03-21T19:27:51.117Z,9.03
2023-03-21T19:30:19.698Z,9.02
2023-03-21T19:32:47.260Z,9.02
2023-03-21T19:35:14.548Z,9.00
2023-03-21T19:37:41.829Z,8.98
2023-03-21T19:40:10.408Z,8.99
2023-03-21T19:42:37.784Z,8.99
2023-03-21T19:45:05.778Z,8.98
2023-03-21T19:47:32.928Z,8.96
2023-03-21T19:50:43.910Z,8.96
2023-03-21T19:52:47.183Z,8.81
2023-03-21T19:55:15.124Z,8.94
2023-03-21T19:57:42.222Z,8.94
2023-03-21T20:00:11.645Z,8.88
2023-03-21T20:02:39.883Z,8.90
2023-03-21T20:05:08.515Z,8.91
2023-03-21T20:07:35.991Z,8.90
2023-03-21T20:10:03.532Z,8.92
2023-03-21T20:12:32.336Z,8.88
2023-03-21T20:15:12.166Z,8.81
2023-03-21T20:17:44.117Z,8.85
2023-03-21T20:20:14.644Z,8.83
2023-03-21T20:23:05.850Z,8.78
2023-03-21T20:25:30.283Z,8.77
2023-03-21T20:28:14.602Z,8.69
2023-03-21T20:30:50.828Z,8.73
2023-03-21T20:33:18.020Z,8.70
2023-03-21T20:36:29.509Z,8.65
2023-03-21T20:38:34.388Z,8.66
2023-03-21T20:41:03.449Z,8.62
2023-03-21T20:46:18.541Z,8.54
2023-03-21T20:48:48.952Z,8.47
2023-03-21T20:54:03.795Z,8.36
2023-03-21T20:56:30.908Z,8.30
2023-03-21T20:59:15.263Z,8.26
2023-03-21T21:01:45.543Z,8.15
2023-03-21T21:04:19.306Z,8.12
2023-03-21T21:06:50.083Z,8.09
2023-03-21T21:09:17.473Z,8.07
2023-03-21T21:14:31.542Z,8.03
2023-03-21T21:17:02.577Z,8.04
2023-03-21T21:19:35.337Z,8.03
2023-03-21T21:22:02.369Z,8.05
2023-03-21T21:24:29.369Z,8.07
2023-03-21T21:26:56.367Z,8.05
2023-03-21T21:29:23.362Z,7.98
2023-03-21T21:31:51.127Z,8.08
2023-03-21T21:34:20.041Z,8.09
2023-03-21T21:36:47.523Z,8.07
2023-03-21T21:39:17.856Z,8.09
2023-03-21T21:41:44.920Z,8.10
2023-03-21T21:44:11.965Z,8.11
2023-03-21T21:46:39.118Z,8.12
2023-03-21T21:49:06.255Z,8.11
2023-03-21T21:51:34.304Z,8.13
2023-03-21T21:54:04.039Z,8.15
2023-03-21T21:56:38.720Z,8.17
2023-03-21T21:59:05.758Z,8.14
2023-03-21T22:01:38.833Z,8.10
2023-03-21T22:04:11.005Z,8.16
2023-03-21T22:06:38.229Z,8.15
2023-03-21T22:09:05.651Z,8.16
2023-03-21T22:11:33.194Z,8.18
2023-03-21T22:14:00.127Z,8.17
2023-03-21T22:16:27.234Z,8.20
2023-03-21T22:18:54.444Z,8.19
2023-03-21T22:21:21.394Z,8.17
2023-03-21T22:23:48.494Z,8.21
2023-03-21T22:26:15.678Z,8.18
2023-03-21T22:28:43.514Z,8.20
2023-03-21T22:31:16.197Z,8.21
2023-03-21T22:33:43.907Z,8.23
2023-03-21T22:36:11.460Z,8.21
2023-03-21T22:38:38.730Z,8.20
2023-03-21T22:41:06.676Z,8.09
2023-03-21T22:43:35.538Z,8.29
2023-03-21T22:46:04.134Z,8.30
2023-03-21T22:48:31.392Z,8.32
2023-03-21T22:50:59.654Z,8.33
2023-03-21T22:53:27.041Z,8.33
2023-03-21T22:55:54.343Z,8.35
2023-03-21T22:58:21.497Z,8.32
2023-03-21T23:00:48.732Z,8.31
2023-03-21T23:03:17.123Z,8.37
2023-03-21T23:05:45.132Z,8.37
2023-03-21T23:08:13.300Z,8.35
2023-03-21T23:10:43.965Z,8.30
2023-03-21T23:13:11.309Z,8.29
2023-03-21T23:15:41.241Z,8.28
2023-03-21T23:18:08.613Z,8.23
2023-03-21T23:20:36.319Z,8.22
2023-03-21T23:23:03.354Z,8.22
2023-03-21T23:25:30.546Z,8.21
2023-03-21T23:27:57.792Z,8.14
2023-03-21T23:30:24.910Z,8.16
2023-03-21T23:32:52.579Z,8.14
2023-03-21T23:35:19.773Z,8.18
2023-03-21T23:37:52.385Z,8.18
2023-03-21T23:40:20.963Z,8.14
2023-03-21T23:42:48.039Z,8.12
2023-03-21T23:45:15.737Z,8.12
2023-03-21T23:47:43.181Z,8.14
2023-03-21T23:50:11.208Z,8.13
2023-03-21T23:52:38.872Z,8.14
2023-03-21T23:55:07.405Z,8.14
2023-03-21T23:57:34.782Z,8.12
